sensor_id;sensor_type;location;lat;lon;timestamp;temperature;humidity
5429;DHT22;2737;52.386;9.980;2023-06-05T00:01:06;13.10;99.90
5429;DHT22;2737;52.386;9.980;2023-06-05T00:03:35;13.10;99.90
5429;DHT22;2737;52.386;9.980;2023-06-05T00:06:02;13.00;99.90
5429;DHT22;2737;52.386;9.980;2023-06-05T00:08:29;12.90;99.90
5429;DHT22;2737;52.386;9.980;2023-06-05T00:10:56;12.80;99.90
5429;DHT22;2737;52.386;9.980;2023-06-05T00:13:23;12.80;99.90
5429;DHT22;2737;52.386;9.980;2023-06-05T00:15:50;12.80;99.90
5429;DHT22;2737;52.386;9.980;2023-06-05T00:18:19;12.80;99.90
5429;DHT22;2737;52.386;9.980;2023-06-05T00:20:46;12.80;99.90
5429;DHT22;2737;52.386;9.980;2023-06-05T00:23:14;12.70;99.90
5429;DHT22;2737;52.386;9.980;2023-06-05T00:25:41;12.70;99.90
5429;DHT22;2737;52.386;9.980;2023-06-05T00:28:08;12.70;99.90
5429;DHT22;2737;52.386;9.980;2023-06-05T00:30:35;12.60;99.90
5429;DHT22;2737;52.386;9.980;2023-06-05T00:33:02;12.60;99.90
5429;DHT22;2737;52.386;9.980;2023-06-05T00:35:31;12.60;99.90
5429;DHT22;2737;52.386;9.980;2023-06-05T00:37:58;12.60;99.90
5429;DHT22;2737;52.386;9.980;2023-06-05T00:40:25;12.50;99.90
5429;DHT22;2737;52.386;9.980;2023-06-05T00:42:52;12.30;99.90
5429;DHT22;2737;52.386;9.980;2023-06-05T00:45:19;12.30;99.90
5429;DHT22;2737;52.386;9.980;2023-06-05T00:47:46;12.30;99.90
5429;DHT22;2737;52.386;9.980;2023-06-05T00:50:14;12.20;99.90
5429;DHT22;2737;52.386;9.980;2023-06-05T00:52:44;12.20;99.90
5429;DHT22;2737;52.386;9.980;2023-06-05T00:55:12;12.10;99.90
5429;DHT22;2737;52.386;9.980;2023-06-05T00:57:40;12.10;99.90
5429;DHT22;2737;52.386;9.980;2023-06-05T01:00:08;12.10;99.90
5429;DHT22;2737;52.386;9.980;2023-06-05T01:02:38;12.00;99.90
5429;DHT22;2737;52.386;9.980;2023-06-05T01:05:07;12.00;99.90
5429;DHT22;2737;52.386;9.980;2023-06-05T01:07:34;12.10;99.90
5429;DHT22;2737;52.386;9.980;2023-06-05T01:10:06;12.10;99.90
5429;DHT22;2737;52.386;9.980;2023-06-05T01:12:38;12.00;99.90
5429;DHT22;2737;52.386;9.980;2023-06-05T01:15:08;12.00;99.90
5429;DHT22;2737;52.386;9.980;2023-06-05T01:17:35;11.90;99.90
5429;DHT22;2737;52.386;9.980;2023-06-05T01:20:04;11.90;99.90
5429;DHT22;2737;52.386;9.980;2023-06-05T01:22:35;11.90;99.90
5429;DHT22;2737;52.386;9.980;2023-06-05T01:25:05;11.80;99.90
5429;DHT22;2737;52.386;9.980;2023-06-05T01:27:38;11.80;99.90
5429;DHT22;2737;52.386;9.980;2023-06-05T01:30:12;11.80;99.90
5429;DHT22;2737;52.386;9.980;2023-06-05T01:32:46;11.70;99.90
5429;DHT22;2737;52.386;9.980;2023-06-05T01:35:13;11.60;99.90
5429;DHT22;2737;52.386;9.980;2023-06-05T01:37:45;11.60;99.90
5429;DHT22;2737;52.386;9.980;2023-06-05T01:40:16;11.50;99.90
5429;DHT22;2737;52.386;9.980;2023-06-05T01:42:44;11.50;99.90
5429;DHT22;2737;52.386;9.980;2023-06-05T01:45:14;11.40;99.90
5429;DHT22;2737;52.386;9.980;2023-06-05T01:47:42;11.30;99.90
5429;DHT22;2737;52.386;9.980;2023-06-05T01:50:10;11.30;99.90
5429;DHT22;2737;52.386;9.980;2023-06-05T01:52:40;11.30;99.90
5429;DHT22;2737;52.386;9.980;2023-06-05T01:55:07;11.30;99.90
5429;DHT22;2737;52.386;9.980;2023-06-05T01:57:42;11.30;99.90
5429;DHT22;2737;52.386;9.980;2023-06-05T02:00:09;11.30;99.90
5429;DHT22;2737;52.386;9.980;2023-06-05T02:02:38;11.20;99.90
5429;DHT22;2737;52.386;9.980;2023-06-05T02:05:07;11.10;99.90
5429;DHT22;2737;52.386;9.980;2023-06-05T02:07:36;11.00;99.90
5429;DHT22;2737;52.386;9.980;2023-06-05T02:10:04;11.00;99.90
5429;DHT22;2737;52.386;9.980;2023-06-05T02:12:31;11.00;99.90
5429;DHT22;2737;52.386;9.980;2023-06-05T02:15:01;10.90;99.90
5429;DHT22;2737;52.386;9.980;2023-06-05T02:17:28;10.90;99.90
5429;DHT22;2737;52.386;9.980;2023-06-05T02:19:55;10.80;99.90
5429;DHT22;2737;52.386;9.980;2023-06-05T02:22:23;10.80;99.90
5429;DHT22;2737;52.386;9.980;2023-06-05T02:24:50;10.70;99.90
5429;DHT22;2737;52.386;9.980;2023-06-05T02:27:17;10.70;99.90
5429;DHT22;2737;52.386;9.980;2023-06-05T02:29:45;10.70;99.90
5429;DHT22;2737;52.386;9.980;2023-06-05T02:32:13;10.70;99.90
5429;DHT22;2737;52.386;9.980;2023-06-05T02:34:40;10.60;99.90
5429;DHT22;2737;52.386;9.980;2023-06-05T02:37:07;10.60;99.90
5429;DHT22;2737;52.386;9.980;2023-06-05T02:39:37;10.50;99.90
5429;DHT22;2737;52.386;9.980;2023-06-05T02:42:04;10.40;99.90
5429;DHT22;2737;52.386;9.980;2023-06-05T02:44:33;10.40;99.90
5429;DHT22;2737;52.386;9.980;2023-06-05T02:47:00;10.30;99.90
5429;DHT22;2737;52.386;9.980;2023-06-05T02:49:29;10.30;99.90
5429;DHT22;2737;52.386;9.980;2023-06-05T02:51:57;10.20;99.90
5429;DHT22;2737;52.386;9.980;2023-06-05T02:54:25;10.10;99.90
5429;DHT22;2737;52.386;9.980;2023-06-05T02:56:54;10.10;99.90
5429;DHT22;2737;52.386;9.980;2023-06-05T02:59:22;10.10;99.90
5429;DHT22;2737;52.386;9.980;2023-06-05T03:01:50;10.10;99.90
5429;DHT22;2737;52.386;9.980;2023-06-05T03:04:17;10.20;99.90
5429;DHT22;2737;52.386;9.980;2023-06-05T03:06:48;10.20;99.90
5429;DHT22;2737;52.386;9.980;2023-06-05T03:09:16;10.30;99.90
5429;DHT22;2737;52.386;9.980;2023-06-05T03:11:43;10.30;99.90
5429;DHT22;2737;52.386;9.980;2023-06-05T03:14:10;10.30;99.90
5429;DHT22;2737;52.386;9.980;2023-06-05T03:16:37;10.20;99.90
5429;DHT22;2737;52.386;9.980;2023-06-05T03:19:07;10.20;99.90
5429;DHT22;2737;52.386;9.980;2023-06-05T03:21:35;10.10;99.90
5429;DHT22;2737;52.386;9.980;2023-06-05T03:24:06;10.10;99.90
5429;DHT22;2737;52.386;9.980;2023-06-05T03:26:33;10.00;99.90
5429;DHT22;2737;52.386;9.980;2023-06-05T03:29:00;10.00;99.90
5429;DHT22;2737;52.386;9.980;2023-06-05T03:31:27;10.00;99.90
5429;DHT22;2737;52.386;9.980;2023-06-05T03:33:55;10.00;99.90
5429;DHT22;2737;52.386;9.980;2023-06-05T03:36:24;10.10;99.90
5429;DHT22;2737;52.386;9.980;2023-06-05T03:38:51;10.00;99.90
5429;DHT22;2737;52.386;9.980;2023-06-05T03:41:19;10.00;99.90
5429;DHT22;2737;52.386;9.980;2023-06-05T03:43:47;10.00;99.90
5429;DHT22;2737;52.386;9.980;2023-06-05T03:46:15;10.00;99.90
5429;DHT22;2737;52.386;9.980;2023-06-05T03:48:44;10.00;99.90
5429;DHT22;2737;52.386;9.980;2023-06-05T03:51:11;10.00;99.90
5429;DHT22;2737;52.386;9.980;2023-06-05T03:53:39;10.00;99.90
5429;DHT22;2737;52.386;9.980;2023-06-05T03:56:08;10.00;99.90
5429;DHT22;2737;52.386;9.980;2023-06-05T03:58:37;10.10;99.90
5429;DHT22;2737;52.386;9.980;2023-06-05T04:01:05;10.10;99.90
5429;DHT22;2737;52.386;9.980;2023-06-05T04:03:32;10.10;99.90
5429;DHT22;2737;52.386;9.980;2023-06-05T04:06:03;10.10;99.90
5429;DHT22;2737;52.386;9.980;2023-06-05T04:08:30;10.10;99.90
5429;DHT22;2737;52.386;9.980;2023-06-05T04:10:57;9.90;99.90
5429;DHT22;2737;52.386;9.980;2023-06-05T04:13:24;9.90;99.90
5429;DHT22;2737;52.386;9.980;2023-06-05T04:15:53;9.90;99.90
5429;DHT22;2737;52.386;9.980;2023-06-05T04:18:20;9.80;99.90
5429;DHT22;2737;52.386;9.980;2023-06-05T04:20:47;9.90;99.90
5429;DHT22;2737;52.386;9.980;2023-06-05T04:23:14;10.00;99.90
5429;DHT22;2737;52.386;9.980;2023-06-05T04:25:41;10.10;99.90
5429;DHT22;2737;52.386;9.980;2023-06-05T04:28:11;10.10;99.90
5429;DHT22;2737;52.386;9.980;2023-06-05T04:30:40;10.10;99.90
5429;DHT22;2737;52.386;9.980;2023-06-05T04:33:09;10.20;99.90
5429;DHT22;2737;52.386;9.980;2023-06-05T04:35:36;10.20;99.90
5429;DHT22;2737;52.386;9.980;2023-06-05T04:38:03;10.20;99.90
5429;DHT22;2737;52.386;9.980;2023-06-05T04:40:30;10.20;99.90
5429;DHT22;2737;52.386;9.980;2023-06-05T04:42:58;10.20;99.90
5429;DHT22;2737;52.386;9.980;2023-06-05T04:45:25;10.10;99.90
5429;DHT22;2737;52.386;9.980;2023-06-05T04:47:52;10.20;99.90
5429;DHT22;2737;52.386;9.980;2023-06-05T04:50:24;10.30;99.90
5429;DHT22;2737;52.386;9.980;2023-06-05T04:52:52;10.40;99.90
5429;DHT22;2737;52.386;9.980;2023-06-05T04:55:20;10.50;99.90
5429;DHT22;2737;52.386;9.980;2023-06-05T04:57:47;10.60;99.90
5429;DHT22;2737;52.386;9.980;2023-06-05T05:00:15;10.70;99.90
5429;DHT22;2737;52.386;9.980;2023-06-05T05:02:42;10.70;99.90
5429;DHT22;2737;52.386;9.980;2023-06-05T05:05:09;10.80;99.90
5429;DHT22;2737;52.386;9.980;2023-06-05T05:07:40;10.70;99.90
5429;DHT22;2737;52.386;9.980;2023-06-05T05:10:08;10.80;99.90
5429;DHT22;2737;52.386;9.980;2023-06-05T05:12:36;10.90;99.90
5429;DHT22;2737;52.386;9.980;2023-06-05T05:15:04;11.00;99.90
5429;DHT22;2737;52.386;9.980;2023-06-05T05:17:31;11.10;99.90
5429;DHT22;2737;52.386;9.980;2023-06-05T05:19:58;11.20;99.90
5429;DHT22;2737;52.386;9.980;2023-06-05T05:22:26;11.30;99.90
5429;DHT22;2737;52.386;9.980;2023-06-05T05:24:54;11.30;99.90
5429;DHT22;2737;52.386;9.980;2023-06-05T05:27:21;11.20;99.90
5429;DHT22;2737;52.386;9.980;2023-06-05T05:29:50;11.20;99.90
5429;DHT22;2737;52.386;9.980;2023-06-05T05:32:17;11.30;99.90
5429;DHT22;2737;52.386;9.980;2023-06-05T05:34:44;11.40;99.90
5429;DHT22;2737;52.386;9.980;2023-06-05T05:37:11;11.50;99.90
5429;DHT22;2737;52.386;9.980;2023-06-05T05:39:39;11.50;99.90
5429;DHT22;2737;52.386;9.980;2023-06-05T05:42:07;11.60;99.90
5429;DHT22;2737;52.386;9.980;2023-06-05T05:44:34;11.60;99.90
5429;DHT22;2737;52.386;9.980;2023-06-05T05:47:02;11.90;99.90
5429;DHT22;2737;52.386;9.980;2023-06-05T05:49:29;12.00;99.90
5429;DHT22;2737;52.386;9.980;2023-06-05T05:51:56;12.10;99.90
5429;DHT22;2737;52.386;9.980;2023-06-05T05:54:23;12.20;99.90
5429;DHT22;2737;52.386;9.980;2023-06-05T05:56:52;12.40;99.90
5429;DHT22;2737;52.386;9.980;2023-06-05T05:59:21;12.40;99.90
5429;DHT22;2737;52.386;9.980;2023-06-05T06:01:48;12.60;99.90
5429;DHT22;2737;52.386;9.980;2023-06-05T06:04:16;12.90;99.90
5429;DHT22;2737;52.386;9.980;2023-06-05T06:06:44;13.30;99.90
5429;DHT22;2737;52.386;9.980;2023-06-05T06:09:14;13.40;99.90
5429;DHT22;2737;52.386;9.980;2023-06-05T06:11:44;13.10;99.90
5429;DHT22;2737;52.386;9.980;2023-06-05T06:14:11;13.40;99.90
5429;DHT22;2737;52.386;9.980;2023-06-05T06:16:40;13.80;99.90
5429;DHT22;2737;52.386;9.980;2023-06-05T06:19:08;14.00;99.90
5429;DHT22;2737;52.386;9.980;2023-06-05T06:21:40;14.00;99.90
5429;DHT22;2737;52.386;9.980;2023-06-05T06:24:07;14.00;99.90
5429;DHT22;2737;52.386;9.980;2023-06-05T06:26:34;14.40;99.90
5429;DHT22;2737;52.386;9.980;2023-06-05T06:29:02;14.80;99.90
5429;DHT22;2737;52.386;9.980;2023-06-05T06:31:29;15.20;99.90
5429;DHT22;2737;52.386;9.980;2023-06-05T06:33:58;15.30;99.90
5429;DHT22;2737;52.386;9.980;2023-06-05T06:36:25;15.60;99.90
5429;DHT22;2737;52.386;9.980;2023-06-05T06:38:52;15.90;99.90
5429;DHT22;2737;52.386;9.980;2023-06-05T06:41:19;15.90;99.90
5429;DHT22;2737;52.386;9.980;2023-06-05T06:43:47;16.10;99.90
5429;DHT22;2737;52.386;9.980;2023-06-05T06:46:14;16.40;99.90
5429;DHT22;2737;52.386;9.980;2023-06-05T06:48:41;16.50;99.90
5429;DHT22;2737;52.386;9.980;2023-06-05T06:51:09;16.40;99.90
5429;DHT22;2737;52.386;9.980;2023-06-05T06:53:36;16.70;99.90
5429;DHT22;2737;52.386;9.980;2023-06-05T06:56:03;17.10;99.90
5429;DHT22;2737;52.386;9.980;2023-06-05T06:58:30;17.00;99.90
5429;DHT22;2737;52.386;9.980;2023-06-05T07:00:57;16.70;99.90
5429;DHT22;2737;52.386;9.980;2023-06-05T07:03:25;16.70;99.90
5429;DHT22;2737;52.386;9.980;2023-06-05T07:05:52;16.70;99.90
5429;DHT22;2737;52.386;9.980;2023-06-05T07:08:21;16.80;99.90
5429;DHT22;2737;52.386;9.980;2023-06-05T07:10:48;17.00;99.90
5429;DHT22;2737;52.386;9.980;2023-06-05T07:13:15;17.00;99.90
5429;DHT22;2737;52.386;9.980;2023-06-05T07:15:42;17.20;99.90
5429;DHT22;2737;52.386;9.980;2023-06-05T07:18:09;17.50;99.90
5429;DHT22;2737;52.386;9.980;2023-06-05T07:20:36;17.70;99.90
5429;DHT22;2737;52.386;9.980;2023-06-05T07:23:03;17.60;99.90
5429;DHT22;2737;52.386;9.980;2023-06-05T07:25:32;17.50;99.90
5429;DHT22;2737;52.386;9.980;2023-06-05T07:27:59;17.90;99.90
5429;DHT22;2737;52.386;9.980;2023-06-05T07:30:26;18.50;99.90
5429;DHT22;2737;52.386;9.980;2023-06-05T07:32:54;18.80;99.90
5429;DHT22;2737;52.386;9.980;2023-06-05T07:35:21;18.80;99.90
5429;DHT22;2737;52.386;9.980;2023-06-05T07:37:49;19.00;99.90
5429;DHT22;2737;52.386;9.980;2023-06-05T07:40:17;19.20;99.90
5429;DHT22;2737;52.386;9.980;2023-06-05T07:42:46;19.40;99.90
5429;DHT22;2737;52.386;9.980;2023-06-05T07:45:13;19.60;99.90
5429;DHT22;2737;52.386;9.980;2023-06-05T07:47:40;19.80;99.90
5429;DHT22;2737;52.386;9.980;2023-06-05T07:50:08;19.80;99.90
5429;DHT22;2737;52.386;9.980;2023-06-05T07:52:35;19.40;99.90
5429;DHT22;2737;52.386;9.980;2023-06-05T07:55:03;19.60;99.90
5429;DHT22;2737;52.386;9.980;2023-06-05T07:57:31;20.00;99.90
5429;DHT22;2737;52.386;9.980;2023-06-05T08:00:00;19.70;99.90
5429;DHT22;2737;52.386;9.980;2023-06-05T08:02:30;19.50;99.90
5429;DHT22;2737;52.386;9.980;2023-06-05T08:04:57;19.30;99.90
5429;DHT22;2737;52.386;9.980;2023-06-05T08:07:24;19.50;99.90
5429;DHT22;2737;52.386;9.980;2023-06-05T08:09:51;20.00;99.90
5429;DHT22;2737;52.386;9.980;2023-06-05T08:12:18;20.60;99.90
5429;DHT22;2737;52.386;9.980;2023-06-05T08:14:45;20.90;99.90
5429;DHT22;2737;52.386;9.980;2023-06-05T08:17:14;21.20;99.90
5429;DHT22;2737;52.386;9.980;2023-06-05T08:19:41;21.20;99.90
5429;DHT22;2737;52.386;9.980;2023-06-05T08:22:08;21.20;99.90
5429;DHT22;2737;52.386;9.980;2023-06-05T08:24:35;21.20;99.90
5429;DHT22;2737;52.386;9.980;2023-06-05T08:27:03;20.70;99.90
5429;DHT22;2737;52.386;9.980;2023-06-05T08:29:30;21.00;99.90
5429;DHT22;2737;52.386;9.980;2023-06-05T08:32:02;21.50;99.90
5429;DHT22;2737;52.386;9.980;2023-06-05T08:34:31;20.90;99.90
5429;DHT22;2737;52.386;9.980;2023-06-05T08:36:58;21.10;99.90
5429;DHT22;2737;52.386;9.980;2023-06-05T08:39:25;21.60;99.90
5429;DHT22;2737;52.386;9.980;2023-06-05T08:41:57;20.60;99.90
5429;DHT22;2737;52.386;9.980;2023-06-05T08:44:25;21.10;99.90
5429;DHT22;2737;52.386;9.980;2023-06-05T08:46:59;21.40;99.90
5429;DHT22;2737;52.386;9.980;2023-06-05T08:49:26;21.70;99.90
5429;DHT22;2737;52.386;9.980;2023-06-05T08:51:57;22.00;99.90
5429;DHT22;2737;52.386;9.980;2023-06-05T08:54:31;22.00;99.90
5429;DHT22;2737;52.386;9.980;2023-06-05T08:57:00;22.40;99.90
5429;DHT22;2737;52.386;9.980;2023-06-05T08:59:28;22.50;99.90
5429;DHT22;2737;52.386;9.980;2023-06-05T09:01:56;22.10;99.90
5429;DHT22;2737;52.386;9.980;2023-06-05T09:04:23;22.30;99.40
5429;DHT22;2737;52.386;9.980;2023-06-05T09:06:51;22.40;99.50
5429;DHT22;2737;52.386;9.980;2023-06-05T09:09:20;22.70;98.20
5429;DHT22;2737;52.386;9.980;2023-06-05T09:11:47;22.80;98.10
5429;DHT22;2737;52.386;9.980;2023-06-05T09:14:25;22.60;98.10
5429;DHT22;2737;52.386;9.980;2023-06-05T09:16:53;22.70;98.00
5429;DHT22;2737;52.386;9.980;2023-06-05T09:19:20;22.60;98.60
5429;DHT22;2737;52.386;9.980;2023-06-05T09:21:52;22.80;98.60
5429;DHT22;2737;52.386;9.980;2023-06-05T09:24:22;23.20;97.10
5429;DHT22;2737;52.386;9.980;2023-06-05T09:26:55;23.00;96.40
5429;DHT22;2737;52.386;9.980;2023-06-05T09:29:23;23.10;96.20
5429;DHT22;2737;52.386;9.980;2023-06-05T09:31:52;23.30;94.80
5429;DHT22;2737;52.386;9.980;2023-06-05T09:34:23;23.40;95.00
5429;DHT22;2737;52.386;9.980;2023-06-05T09:36:51;23.30;94.80
5429;DHT22;2737;52.386;9.980;2023-06-05T09:39:22;22.80;95.50
5429;DHT22;2737;52.386;9.980;2023-06-05T09:41:51;22.60;95.00
5429;DHT22;2737;52.386;9.980;2023-06-05T09:44:19;22.70;95.80
5429;DHT22;2737;52.386;9.980;2023-06-05T09:46:57;22.70;95.60
5429;DHT22;2737;52.386;9.980;2023-06-05T09:49:27;22.80;95.20
5429;DHT22;2737;52.386;9.980;2023-06-05T09:51:56;22.80;95.10
5429;DHT22;2737;52.386;9.980;2023-06-05T09:54:26;22.60;95.40
5429;DHT22;2737;52.386;9.980;2023-06-05T09:56:58;22.40;95.10
5429;DHT22;2737;52.386;9.980;2023-06-05T09:59:28;22.60;94.20
5429;DHT22;2737;52.386;9.980;2023-06-05T10:01:59;22.90;92.90
5429;DHT22;2737;52.386;9.980;2023-06-05T10:04:28;22.40;92.50
5429;DHT22;2737;52.386;9.980;2023-06-05T10:06:59;22.50;92.80
5429;DHT22;2737;52.386;9.980;2023-06-05T10:09:30;22.60;92.70
5429;DHT22;2737;52.386;9.980;2023-06-05T10:11:58;23.00;90.30
5429;DHT22;2737;52.386;9.980;2023-06-05T10:14:26;23.10;85.00
5429;DHT22;2737;52.386;9.980;2023-06-05T10:16:53;23.30;82.50
5429;DHT22;2737;52.386;9.980;2023-06-05T10:19:21;23.50;79.70
5429;DHT22;2737;52.386;9.980;2023-06-05T10:21:51;23.70;80.40
5429;DHT22;2737;52.386;9.980;2023-06-05T10:24:22;24.00;76.60
5429;DHT22;2737;52.386;9.980;2023-06-05T10:27:19;24.00;74.50
5429;DHT22;2737;52.386;9.980;2023-06-05T10:30:08;23.90;73.40
5429;DHT22;2737;52.386;9.980;2023-06-05T10:32:45;23.20;75.00
5429;DHT22;2737;52.386;9.980;2023-06-05T10:35:24;23.50;72.90
5429;DHT22;2737;52.386;9.980;2023-06-05T10:38:05;23.60;70.20
5429;DHT22;2737;52.386;9.980;2023-06-05T10:40:36;23.60;70.30
5429;DHT22;2737;52.386;9.980;2023-06-05T10:43:26;23.70;72.20
5429;DHT22;2737;52.386;9.980;2023-06-05T10:45:55;23.70;71.10
5429;DHT22;2737;52.386;9.980;2023-06-05T10:51:33;23.90;66.50
5429;DHT22;2737;52.386;9.980;2023-06-05T10:54:03;24.00;65.70
5429;DHT22;2737;52.386;9.980;2023-06-05T10:56:52;24.10;64.90
5429;DHT22;2737;52.386;9.980;2023-06-05T10:59:23;24.10;65.80
5429;DHT22;2737;52.386;9.980;2023-06-05T11:02:21;24.00;66.90
5429;DHT22;2737;52.386;9.980;2023-06-05T11:05:07;24.00;68.70
5429;DHT22;2737;52.386;9.980;2023-06-05T11:07:36;23.90;67.60
5429;DHT22;2737;52.386;9.980;2023-06-05T11:10:10;23.90;66.90
5429;DHT22;2737;52.386;9.980;2023-06-05T11:13:00;23.80;67.90
5429;DHT22;2737;52.386;9.980;2023-06-05T11:15:42;23.70;68.00
5429;DHT22;2737;52.386;9.980;2023-06-05T11:18:29;23.70;68.80
5429;DHT22;2737;52.386;9.980;2023-06-05T11:20:57;23.70;68.30
5429;DHT22;2737;52.386;9.980;2023-06-05T11:23:24;23.70;68.90
5429;DHT22;2737;52.386;9.980;2023-06-05T11:25:54;23.30;68.20
5429;DHT22;2737;52.386;9.980;2023-06-05T11:28:43;23.20;68.80
5429;DHT22;2737;52.386;9.980;2023-06-05T11:31:11;23.20;68.80
5429;DHT22;2737;52.386;9.980;2023-06-05T11:33:38;23.40;67.70
5429;DHT22;2737;52.386;9.980;2023-06-05T11:36:06;23.50;67.20
5429;DHT22;2737;52.386;9.980;2023-06-05T11:38:37;23.80;69.00
5429;DHT22;2737;52.386;9.980;2023-06-05T11:41:08;24.20;68.30
5429;DHT22;2737;52.386;9.980;2023-06-05T11:43:42;24.40;67.60
5429;DHT22;2737;52.386;9.980;2023-06-05T11:46:11;24.40;66.50
5429;DHT22;2737;52.386;9.980;2023-06-05T11:48:43;24.20;67.30
5429;DHT22;2737;52.386;9.980;2023-06-05T11:51:11;24.30;66.60
5429;DHT22;2737;52.386;9.980;2023-06-05T11:53:45;24.30;66.30
5429;DHT22;2737;52.386;9.980;2023-06-05T11:56:14;24.20;65.90
5429;DHT22;2737;52.386;9.980;2023-06-05T11:58:43;24.20;66.90
5429;DHT22;2737;52.386;9.980;2023-06-05T12:01:13;24.40;67.10
5429;DHT22;2737;52.386;9.980;2023-06-05T12:03:43;24.40;66.30
5429;DHT22;2737;52.386;9.980;2023-06-05T12:06:11;24.40;64.70
5429;DHT22;2737;52.386;9.980;2023-06-05T12:08:40;24.50;65.00
5429;DHT22;2737;52.386;9.980;2023-06-05T12:11:21;24.30;64.50
5429;DHT22;2737;52.386;9.980;2023-06-05T12:13:49;24.20;64.70
5429;DHT22;2737;52.386;9.980;2023-06-05T12:16:19;24.30;63.70
5429;DHT22;2737;52.386;9.980;2023-06-05T12:18:46;24.20;63.70
5429;DHT22;2737;52.386;9.980;2023-06-05T12:21:21;24.00;64.00
5429;DHT22;2737;52.386;9.980;2023-06-05T12:23:48;24.20;65.00
5429;DHT22;2737;52.386;9.980;2023-06-05T12:26:16;24.30;67.10
5429;DHT22;2737;52.386;9.980;2023-06-05T12:28:44;24.50;65.40
5429;DHT22;2737;52.386;9.980;2023-06-05T12:31:37;24.50;64.90
5429;DHT22;2737;52.386;9.980;2023-06-05T12:34:05;24.50;64.60
5429;DHT22;2737;52.386;9.980;2023-06-05T12:36:38;24.20;64.70
5429;DHT22;2737;52.386;9.980;2023-06-05T12:39:06;24.20;64.50
5429;DHT22;2737;52.386;9.980;2023-06-05T12:41:36;24.20;65.40
5429;DHT22;2737;52.386;9.980;2023-06-05T12:44:04;24.20;65.50
5429;DHT22;2737;52.386;9.980;2023-06-05T12:46:32;24.30;65.40
5429;DHT22;2737;52.386;9.980;2023-06-05T12:49:01;24.30;64.00
5429;DHT22;2737;52.386;9.980;2023-06-05T12:51:28;24.10;63.90
5429;DHT22;2737;52.386;9.980;2023-06-05T12:53:56;24.20;64.10
5429;DHT22;2737;52.386;9.980;2023-06-05T12:56:24;24.20;64.10
5429;DHT22;2737;52.386;9.980;2023-06-05T12:58:56;24.30;64.70
5429;DHT22;2737;52.386;9.980;2023-06-05T13:01:24;24.40;63.90
5429;DHT22;2737;52.386;9.980;2023-06-05T13:03:52;24.30;63.80
5429;DHT22;2737;52.386;9.980;2023-06-05T13:06:20;24.30;64.20
5429;DHT22;2737;52.386;9.980;2023-06-05T13:08:48;24.20;63.30
5429;DHT22;2737;52.386;9.980;2023-06-05T13:11:16;24.10;63.60
5429;DHT22;2737;52.386;9.980;2023-06-05T13:13:43;24.20;63.60
5429;DHT22;2737;52.386;9.980;2023-06-05T13:16:11;24.20;63.40
5429;DHT22;2737;52.386;9.980;2023-06-05T13:18:38;24.20;63.80
5429;DHT22;2737;52.386;9.980;2023-06-05T13:21:05;24.30;64.60
5429;DHT22;2737;52.386;9.980;2023-06-05T13:23:34;24.40;65.00
5429;DHT22;2737;52.386;9.980;2023-06-05T13:26:01;24.50;63.90
5429;DHT22;2737;52.386;9.980;2023-06-05T13:28:29;24.50;63.20
5429;DHT22;2737;52.386;9.980;2023-06-05T13:30:56;24.60;62.50
5429;DHT22;2737;52.386;9.980;2023-06-05T13:33:23;24.60;62.40
5429;DHT22;2737;52.386;9.980;2023-06-05T13:35:51;24.60;62.40
5429;DHT22;2737;52.386;9.980;2023-06-05T13:38:19;24.60;61.40
5429;DHT22;2737;52.386;9.980;2023-06-05T13:40:48;24.50;60.60
5429;DHT22;2737;52.386;9.980;2023-06-05T13:43:17;24.40;60.40
5429;DHT22;2737;52.386;9.980;2023-06-05T13:45:45;24.40;60.70
5429;DHT22;2737;52.386;9.980;2023-06-05T13:48:12;24.50;61.10
5429;DHT22;2737;52.386;9.980;2023-06-05T13:50:39;24.60;60.90
5429;DHT22;2737;52.386;9.980;2023-06-05T13:53:07;24.50;60.80
5429;DHT22;2737;52.386;9.980;2023-06-05T13:55:34;24.50;61.00
5429;DHT22;2737;52.386;9.980;2023-06-05T13:58:03;24.50;61.20
5429;DHT22;2737;52.386;9.980;2023-06-05T14:00:30;24.40;60.90
5429;DHT22;2737;52.386;9.980;2023-06-05T14:02:58;24.10;61.40
5429;DHT22;2737;52.386;9.980;2023-06-05T14:05:25;24.20;61.70
5429;DHT22;2737;52.386;9.980;2023-06-05T14:07:53;24.40;62.40
5429;DHT22;2737;52.386;9.980;2023-06-05T14:10:22;24.40;60.50
5429;DHT22;2737;52.386;9.980;2023-06-05T14:12:49;24.40;60.50
5429;DHT22;2737;52.386;9.980;2023-06-05T14:15:18;24.40;61.10
5429;DHT22;2737;52.386;9.980;2023-06-05T14:17:46;24.50;59.50
5429;DHT22;2737;52.386;9.980;2023-06-05T14:20:13;24.50;60.00
5429;DHT22;2737;52.386;9.980;2023-06-05T14:22:40;24.50;59.70
5429;DHT22;2737;52.386;9.980;2023-06-05T14:25:08;24.60;60.30
5429;DHT22;2737;52.386;9.980;2023-06-05T14:27:36;24.70;60.10
5429;DHT22;2737;52.386;9.980;2023-06-05T14:30:04;24.70;59.90
5429;DHT22;2737;52.386;9.980;2023-06-05T14:32:34;24.80;60.60
5429;DHT22;2737;52.386;9.980;2023-06-05T14:35:02;24.80;60.80
5429;DHT22;2737;52.386;9.980;2023-06-05T14:37:29;24.90;60.90
5429;DHT22;2737;52.386;9.980;2023-06-05T14:39:56;25.00;60.60
5429;DHT22;2737;52.386;9.980;2023-06-05T14:42:23;24.70;60.00
5429;DHT22;2737;52.386;9.980;2023-06-05T14:44:50;24.70;60.40
5429;DHT22;2737;52.386;9.980;2023-06-05T14:47:17;24.70;60.30
5429;DHT22;2737;52.386;9.980;2023-06-05T14:49:46;24.80;59.60
5429;DHT22;2737;52.386;9.980;2023-06-05T14:52:13;24.70;59.90
5429;DHT22;2737;52.386;9.980;2023-06-05T14:54:40;24.70;59.80
5429;DHT22;2737;52.386;9.980;2023-06-05T14:57:07;24.70;59.80
5429;DHT22;2737;52.386;9.980;2023-06-05T14:59:34;24.70;60.60
5429;DHT22;2737;52.386;9.980;2023-06-05T15:02:01;24.80;59.90
5429;DHT22;2737;52.386;9.980;2023-06-05T15:04:28;24.80;60.40
5429;DHT22;2737;52.386;9.980;2023-06-05T15:06:57;24.80;60.10
5429;DHT22;2737;52.386;9.980;2023-06-05T15:09:24;24.80;59.60
5429;DHT22;2737;52.386;9.980;2023-06-05T15:11:51;24.70;60.40
5429;DHT22;2737;52.386;9.980;2023-06-05T15:14:21;24.70;60.30
5429;DHT22;2737;52.386;9.980;2023-06-05T15:16:49;24.80;60.10
5429;DHT22;2737;52.386;9.980;2023-06-05T15:19:16;24.80;60.00
5429;DHT22;2737;52.386;9.980;2023-06-05T15:21:44;24.70;59.80
5429;DHT22;2737;52.386;9.980;2023-06-05T15:24:12;24.80;59.90
5429;DHT22;2737;52.386;9.980;2023-06-05T15:26:39;24.70;59.80
5429;DHT22;2737;52.386;9.980;2023-06-05T15:29:06;24.70;59.90
5429;DHT22;2737;52.386;9.980;2023-06-05T15:31:33;24.80;60.30
5429;DHT22;2737;52.386;9.980;2023-06-05T15:34:00;25.00;60.40
5429;DHT22;2737;52.386;9.980;2023-06-05T15:36:27;25.00;59.80
5429;DHT22;2737;52.386;9.980;2023-06-05T15:38:54;25.00;60.20
5429;DHT22;2737;52.386;9.980;2023-06-05T15:41:23;25.10;60.10
5429;DHT22;2737;52.386;9.980;2023-06-05T15:43:51;25.00;59.90
5429;DHT22;2737;52.386;9.980;2023-06-05T15:46:18;25.00;59.70
5429;DHT22;2737;52.386;9.980;2023-06-05T15:48:45;25.10;60.30
5429;DHT22;2737;52.386;9.980;2023-06-05T15:51:13;25.00;59.90
5429;DHT22;2737;52.386;9.980;2023-06-05T15:53:40;24.90;61.20
5429;DHT22;2737;52.386;9.980;2023-06-05T15:56:07;25.00;61.90
5429;DHT22;2737;52.386;9.980;2023-06-05T15:58:35;25.00;63.30
5429;DHT22;2737;52.386;9.980;2023-06-05T16:01:02;24.80;62.30
5429;DHT22;2737;52.386;9.980;2023-06-05T16:03:29;24.60;62.20
5429;DHT22;2737;52.386;9.980;2023-06-05T16:05:56;24.60;62.30
5429;DHT22;2737;52.386;9.980;2023-06-05T16:08:23;24.50;61.80
5429;DHT22;2737;52.386;9.980;2023-06-05T16:10:50;24.50;63.00
5429;DHT22;2737;52.386;9.980;2023-06-05T16:13:17;24.40;63.20
5429;DHT22;2737;52.386;9.980;2023-06-05T16:15:48;24.40;62.90